Time;durP1;ratioP1;P1;durP2;ratioP2;P2;SDS_P1;SDS_P2;PMS_P1;PMS_P2;Temp;Humidity;BMP_temperature;BMP_pressure;BME280_temperature;BME280_humidity;BME280_pressure;Samples;Min_cycle;Max_cycle;Signal;HPM_P1;HPM_P2
2023/06/08 00:02:15;;;;;;;22.63;12.65;;;;;;;18.98;76.14;100033.25;5054181;28;20056;-75
2023/06/08 00:04:41;;;;;;;20.67;12.05;;;;;;;18.85;76.30;100037.75;5053409;28;20032;-75
2023/06/08 00:07:14;;;;;;;17.98;11.82;;;;;;;18.77;76.72;100036.53;5054980;28;20044;-75
2023/06/08 00:09:40;;;;;;;24.52;12.90;;;;;;;18.90;76.77;100029.31;5054721;28;20536;-75
2023/06/08 00:12:06;;;;;;;20.77;11.52;;;;;;;18.87;76.45;100029.13;5054519;28;20086;-75
2023/06/08 00:14:35;;;;;;;18.20;11.13;;;;;;;18.89;76.01;100032.41;5054085;28;20346;-75
2023/06/08 00:17:03;;;;;;;16.00;10.13;;;;;;;18.94;75.66;100028.66;5055069;28;20564;-75
2023/06/08 00:19:33;;;;;;;19.30;10.13;;;;;;;19.09;74.46;100025.53;5053274;28;20041;-76
2023/06/08 00:21:59;;;;;;;15.95;9.60;;;;;;;18.88;75.27;100025.22;5053813;28;20778;-76
2023/06/08 00:24:27;;;;;;;12.48;8.63;;;;;;;18.64;76.02;100023.59;5054793;28;20036;-76
2023/06/08 00:26:53;;;;;;;20.60;9.68;;;;;;;18.67;75.46;100014.72;5054697;28;20037;-76
2023/06/08 00:29:18;;;;;;;21.85;10.30;;;;;;;18.63;75.70;100013.69;5054670;28;20091;-76
2023/06/08 00:31:43;;;;;;;18.70;9.30;;;;;;;18.71;75.42;100017.66;5054601;28;20024;-74
2023/06/08 00:34:09;;;;;;;18.20;10.20;;;;;;;18.63;75.49;100021.97;5054343;28;20494;-73
2023/06/08 00:36:34;;;;;;;22.15;10.18;;;;;;;18.84;74.18;100016.75;5052981;28;20047;-73
2023/06/08 00:38:59;;;;;;;20.23;9.75;;;;;;;18.62;75.55;100023.91;5053155;28;20497;-74
2023/06/08 00:41:25;;;;;;;21.30;9.52;;;;;;;18.74;74.78;100008.72;5054491;28;20767;-74
2023/06/08 00:43:50;;;;;;;22.73;9.10;;;;;;;18.81;74.37;100016.56;5054869;28;20119;-76
2023/06/08 00:46:17;;;;;;;15.73;9.52;;;;;;;18.57;75.58;100018.50;5053552;28;20265;-74
2023/06/08 00:48:43;;;;;;;15.23;8.55;;;;;;;18.51;75.96;100017.81;5053086;28;20124;-74
2023/06/08 00:51:10;;;;;;;17.05;8.40;;;;;;;18.46;75.77;100025.41;5054000;28;20061;-74
2023/06/08 00:53:37;;;;;;;17.10;9.73;;;;;;;18.39;76.16;100020.31;5054244;28;20032;-74
2023/06/08 00:56:02;;;;;;;19.85;9.80;;;;;;;18.49;75.15;100014.56;5055148;28;20128;-73
2023/06/08 00:58:28;;;;;;;23.85;9.32;;;;;;;18.36;75.01;100015.44;5053530;28;20064;-74
2023/06/08 01:00:59;;;;;;;18.80;9.55;;;;;;;18.43;75.43;100015.81;5053998;28;20098;-74
2023/06/08 01:03:25;;;;;;;16.75;9.20;;;;;;;18.29;75.24;100016.66;5053167;28;20048;-74
2023/06/08 01:05:52;;;;;;;18.25;9.23;;;;;;;18.42;73.93;100020.53;5054193;28;20113;-74
2023/06/08 01:08:24;;;;;;;18.23;8.80;;;;;;;18.36;74.20;100016.25;5053917;28;20134;-74
2023/06/08 01:11:25;;;;;;;18.63;10.30;;;;;;;18.31;74.73;100019.94;5053853;28;20044;-73
2023/06/08 01:14:15;;;;;;;30.00;10.85;;;;;;;18.24;74.99;100013.22;5054504;28;20830;-74
2023/06/08 01:16:49;;;;;;;23.30;10.30;;;;;;;18.33;75.12;100016.06;5052760;28;20086;-74
2023/06/08 01:19:18;;;;;;;17.35;9.27;;;;;;;18.46;74.23;100015.19;5052428;28;20041;-74
2023/06/08 01:22:06;;;;;;;21.08;9.32;;;;;;;18.51;73.47;100008.75;5053475;28;20582;-74
2023/06/08 01:24:35;;;;;;;17.70;9.43;;;;;;;18.34;74.13;100003.88;5053352;28;20044;-74
2023/06/08 01:27:06;;;;;;;21.65;10.02;;;;;;;18.36;73.75;100018.19;5053980;28;20123;-74
2023/06/08 01:29:33;;;;;;;18.85;9.23;;;;;;;18.41;73.08;100012.53;5054327;28;20089;-74
2023/06/08 01:31:59;;;;;;;27.95;12.05;;;;;;;18.15;74.14;100021.38;5054335;28;20040;-74
2023/06/08 01:34:24;;;;;;;23.08;10.30;;;;;;;18.33;72.86;100016.06;5053703;28;20105;-74
2023/06/08 01:37:29;;;;;;;23.33;11.20;;;;;;;18.33;72.64;100010.53;5054767;28;20114;-74
2023/06/08 01:40:00;;;;;;;24.50;10.32;;;;;;;18.20;72.78;100013.81;5053213;28;20037;-73
2023/06/08 01:42:27;;;;;;;18.17;10.00;;;;;;;18.03;73.43;100014.47;5053447;28;20037;-74
2023/06/08 01:44:58;;;;;;;22.15;11.63;;;;;;;17.98;73.53;100017.31;5054270;28;20037;-74
2023/06/08 01:47:31;;;;;;;22.60;12.98;;;;;;;17.99;73.64;100007.94;5053848;28;20078;-74
2023/06/08 01:49:58;;;;;;;22.02;12.15;;;;;;;18.06;72.72;100013.81;5053800;28;20044;-74
2023/06/08 01:52:23;;;;;;;23.45;11.55;;;;;;;17.96;73.08;100003.00;5054464;28;20068;-74
2023/06/08 01:54:48;;;;;;;16.95;9.63;;;;;;;18.01;72.18;100005.69;5053629;28;20264;-74
2023/06/08 01:57:14;;;;;;;19.90;9.70;;;;;;;18.05;71.86;100006.69;5060500;28;20612;-73
2023/06/08 01:59:39;;;;;;;18.40;9.65;;;;;;;17.88;72.51;100012.84;5060103;28;20052;-74
2023/06/08 02:02:04;;;;;;;17.70;8.83;;;;;;;17.74;72.81;100004.56;5053577;28;21247;-74
2023/06/08 02:04:30;;;;;;;20.77;7.80;;;;;;;17.72;72.54;100004.06;5054241;28;20056;-74
2023/06/08 02:06:55;;;;;;;20.20;9.90;;;;;;;17.77;72.31;100001.22;5053403;28;20033;-74
2023/06/08 02:09:21;;;;;;;18.95;7.90;;;;;;;17.84;71.87;100001.63;5052905;28;20036;-73
2023/06/08 02:11:46;;;;;;;16.30;9.13;;;;;;;17.93;71.44;100004.47;5053524;28;20056;-73
2023/06/08 02:14:11;;;;;;;20.85;8.02;;;;;;;17.77;71.67;100001.22;5053378;28;20623;-73
2023/06/08 02:16:38;;;;;;;19.70;8.60;;;;;;;17.99;70.67;100001.59;5053051;28;20421;-74
2023/06/08 02:19:03;;;;;;;13.57;7.90;;;;;;;17.77;71.82;100003.97;5053351;28;20280;-73
2023/06/08 02:21:29;;;;;;;16.40;7.43;;;;;;;17.66;72.34;99997.84;5053511;28;20510;-74
2023/06/08 02:23:54;;;;;;;14.95;8.38;;;;;;;17.59;72.53;100006.53;5054392;28;20040;-74
2023/06/08 02:26:19;;;;;;;17.90;8.53;;;;;;;17.49;72.63;100013.06;5053846;28;20583;-73
2023/06/08 02:28:44;;;;;;;11.83;7.67;;;;;;;17.66;72.35;100010.81;5053187;28;20274;-73
2023/06/08 02:31:11;;;;;;;18.97;8.57;;;;;;;17.71;71.94;99999.69;5053185;28;20039;-73
2023/06/08 02:33:37;;;;;;;21.98;9.95;;;;;;;17.82;71.14;99995.59;5053347;28;20065;-73
2023/06/08 02:36:02;;;;;;;17.05;7.70;;;;;;;17.74;71.13;99996.31;5053562;28;20791;-73
2023/06/08 02:38:28;;;;;;;25.20;8.47;;;;;;;17.65;71.58;99998.16;5053017;28;20037;-73
2023/06/08 02:40:53;;;;;;;21.10;7.82;;;;;;;17.54;72.04;99992.84;5052920;28;20341;-73
2023/06/08 02:43:19;;;;;;;22.33;9.33;;;;;;;17.45;72.27;100001.00;5052928;28;20033;-74
2023/06/08 02:45:44;;;;;;;21.45;7.95;;;;;;;17.31;72.92;99992.75;5053277;28;20053;-73
2023/06/08 02:48:10;;;;;;;18.48;8.95;;;;;;;17.54;71.90;99990.09;5052708;28;20124;-73
2023/06/08 02:50:35;;;;;;;24.38;8.93;;;;;;;17.36;72.64;99989.91;5053316;28;20033;-73
2023/06/08 02:53:02;;;;;;;17.70;8.52;;;;;;;17.26;73.33;99988.16;5069846;28;20110;-73
2023/06/08 02:55:28;;;;;;;18.55;9.10;;;;;;;17.35;72.36;99984.69;5053449;28;20028;-74
2023/06/08 02:57:53;;;;;;;22.58;8.07;;;;;;;17.33;72.62;99979.47;5052138;28;20024;-74
2023/06/08 03:00:20;;;;;;;14.98;8.85;;;;;;;17.17;73.33;99983.66;5052975;28;20041;-73
2023/06/08 03:02:45;;;;;;;15.52;8.55;;;;;;;17.20;73.27;99985.81;5056120;28;20080;-74
2023/06/08 03:05:10;;;;;;;14.05;8.57;;;;;;;17.15;73.62;99982.03;5056931;28;20106;-74
2023/06/08 03:07:40;;;;;;;16.23;7.60;;;;;;;17.03;73.72;99981.66;5057253;28;21130;-74
2023/06/08 03:10:06;;;;;;;16.95;7.80;;;;;;;16.98;73.94;99987.28;5056318;28;20266;-74
2023/06/08 03:12:31;;;;;;;18.13;9.52;;;;;;;17.00;74.07;99990.53;5057893;28;20378;-75
2023/06/08 03:14:56;;;;;;;19.20;9.35;;;;;;;16.95;74.06;99979.59;5057559;28;20033;-75
2023/06/08 03:17:24;;;;;;;27.00;10.23;;;;;;;16.89;74.42;99982.47;5057029;28;20238;-75
2023/06/08 03:19:50;;;;;;;18.92;8.73;;;;;;;16.82;74.69;99986.72;5056961;28;20063;-75
2023/06/08 03:22:15;;;;;;;19.75;9.10;;;;;;;16.75;74.98;99984.34;5056666;28;20029;-75
2023/06/08 03:24:40;;;;;;;19.57;9.40;;;;;;;16.73;74.75;99976.41;5056696;28;20029;-75
2023/06/08 03:27:06;;;;;;;21.87;12.30;;;;;;;16.86;74.13;99979.50;5056833;28;20273;-76
2023/06/08 03:29:31;;;;;;;23.88;10.35;;;;;;;16.66;75.08;99986.97;5056449;28;20380;-75
2023/06/08 03:31:58;;;;;;;17.58;9.35;;;;;;;16.83;74.14;99982.84;5057009;28;20472;-75
2023/06/08 03:34:25;;;;;;;19.00;9.50;;;;;;;16.78;74.63;99979.06;5057807;28;20028;-75
2023/06/08 03:36:51;;;;;;;16.20;8.98;;;;;;;16.64;74.69;99984.53;5057166;28;20063;-75
2023/06/08 03:39:16;;;;;;;23.45;8.43;;;;;;;16.56;75.00;99979.69;5063261;28;20165;-75
2023/06/08 03:41:41;;;;;;;25.07;10.47;;;;;;;16.55;74.97;99981.66;5055591;28;20623;-76
2023/06/08 03:44:06;;;;;;;15.13;8.63;;;;;;;16.76;73.98;99975.00;5057072;28;20083;-75
2023/06/08 03:46:32;;;;;;;18.50;9.20;;;;;;;16.61;74.45;99982.38;5055827;28;20257;-74
2023/06/08 03:48:57;;;;;;;21.67;9.40;;;;;;;16.71;74.13;99975.88;5055995;28;20456;-76
2023/06/08 03:51:22;;;;;;;16.63;8.07;;;;;;;16.67;74.54;99980.34;5056555;28;20325;-75
2023/06/08 03:53:48;;;;;;;26.23;11.13;;;;;;;16.77;74.19;99977.44;5057164;28;20277;-75
2023/06/08 03:56:14;;;;;;;21.58;9.32;;;;;;;16.72;73.75;99985.75;5056154;28;20262;-75
2023/06/08 03:58:41;;;;;;;18.17;10.15;;;;;;;16.76;73.94;99981.28;5055432;28;20079;-75
2023/06/08 04:01:09;;;;;;;33.25;10.13;;;;;;;16.74;73.74;99978.03;5056091;28;20452;-75
2023/06/08 04:03:34;;;;;;;18.55;11.20;;;;;;;16.72;73.69;99984.97;5055098;28;20654;-75
2023/06/08 04:06:00;;;;;;;22.30;9.50;;;;;;;16.69;73.87;99978.94;5055694;28;20075;-74
2023/06/08 04:08:26;;;;;;;20.23;10.02;;;;;;;16.68;73.63;99981.97;5056272;28;20036;-74
2023/06/08 04:10:51;;;;;;;17.63;9.98;;;;;;;16.75;73.34;99981.59;5055779;28;20045;-75
2023/06/08 04:13:16;;;;;;;16.00;9.60;;;;;;;16.69;73.45;99981.69;5054973;28;20507;-75
2023/06/08 04:15:42;;;;;;;24.00;9.27;;;;;;;16.77;73.69;99979.38;5055922;28;20206;-74
2023/06/08 04:18:07;;;;;;;19.83;9.95;;;;;;;16.82;73.11;99979.25;5055850;28;20335;-75
2023/06/08 04:20:32;;;;;;;26.88;11.35;;;;;;;16.87;72.78;99968.19;5056033;28;20040;-75
2023/06/08 04:22:57;;;;;;;14.47;9.33;;;;;;;16.92;72.73;99973.56;5055572;28;20040;-75
2023/06/08 04:25:25;;;;;;;18.45;8.65;;;;;;;16.97;72.51;99974.59;5054798;28;20032;-75
2023/06/08 04:27:52;;;;;;;19.73;8.73;;;;;;;17.03;72.37;99976.16;5055925;28;20041;-75
2023/06/08 04:30:17;;;;;;;21.38;10.18;;;;;;;16.85;73.14;99978.66;5054723;28;20117;-74
2023/06/08 04:32:43;;;;;;;26.55;10.63;;;;;;;16.98;72.20;99981.75;5055279;28;20505;-75
2023/06/08 04:35:08;;;;;;;19.43;10.47;;;;;;;16.96;72.60;99973.81;5055198;28;20614;-75
2023/06/08 04:37:34;;;;;;;23.10;9.25;;;;;;;16.96;72.56;99982.06;5054528;28;20028;-75
2023/06/08 04:40:01;;;;;;;25.50;9.70;;;;;;;17.12;72.05;99987.28;5055831;28;20108;-75
2023/06/08 04:42:27;;;;;;;16.92;8.02;;;;;;;16.86;73.05;99979.50;5055363;28;20032;-75
2023/06/08 04:44:53;;;;;;;19.75;10.02;;;;;;;16.87;73.05;99981.94;5055544;28;20033;-75
2023/06/08 04:47:18;;;;;;;25.45;10.45;;;;;;;16.78;73.58;99983.75;5055185;28;20135;-75
2023/06/08 04:49:43;;;;;;;26.38;10.00;;;;;;;16.82;72.94;99984.78;5054777;28;20127;-75
2023/06/08 04:52:13;;;;;;;24.23;10.13;;;;;;;16.84;73.52;99982.53;5054768;28;20679;-75
2023/06/08 04:54:39;;;;;;;24.58;10.80;;;;;;;17.02;72.59;99980.03;5054911;28;20318;-75
2023/06/08 04:57:09;;;;;;;19.48;9.57;;;;;;;16.96;72.35;99978.50;5054994;28;20146;-75
2023/06/08 04:59:34;;;;;;;20.77;9.13;;;;;;;16.84;72.90;99977.03;5053885;28;20085;-75
2023/06/08 05:02:01;;;;;;;16.33;9.32;;;;;;;16.80;72.81;99981.53;5054085;28;20620;-75
2023/06/08 05:04:26;;;;;;;18.92;8.82;;;;;;;16.76;72.70;99980.50;5054488;28;20040;-75
2023/06/08 05:06:51;;;;;;;20.33;10.68;;;;;;;16.72;73.40;99977.50;5053668;28;20377;-75
2023/06/08 05:09:17;;;;;;;20.17;9.15;;;;;;;16.74;72.45;99980.78;5053626;28;20075;-75
2023/06/08 05:11:42;;;;;;;11.68;6.68;;;;;;;16.71;72.58;99980.56;5054575;28;20045;-75
2023/06/08 05:14:10;;;;;;;20.67;8.60;;;;;;;16.65;72.80;99980.66;5055266;28;20041;-76
2023/06/08 05:16:37;;;;;;;24.20;10.23;;;;;;;16.67;72.92;99980.34;5054824;28;20319;-75
2023/06/08 05:19:02;;;;;;;15.90;9.10;;;;;;;16.70;73.10;99971.47;5054523;28;20082;-75
2023/06/08 05:21:28;;;;;;;13.85;8.35;;;;;;;16.82;73.19;99979.25;5054687;28;20536;-75
2023/06/08 05:23:53;;;;;;;20.50;9.57;;;;;;;16.74;73.03;99980.78;5054290;28;20043;-75
2023/06/08 05:26:21;;;;;;;21.50;8.57;;;;;;;16.84;73.23;99981.75;5054316;28;21190;-75
2023/06/08 05:28:46;;;;;;;18.27;8.73;;;;;;;17.00;72.56;99980.31;5053702;28;20417;-75
2023/06/08 05:31:11;;;;;;;14.10;7.53;;;;;;;16.91;72.57;99968.38;5054245;28;20037;-75
2023/06/08 05:33:36;;;;;;;15.18;7.95;;;;;;;16.86;72.64;99972.03;5054254;28;20055;-75
2023/06/08 05:36:02;;;;;;;18.67;9.47;;;;;;;17.03;72.41;99979.72;5054248;28;20040;-75
2023/06/08 05:38:27;;;;;;;21.33;8.80;;;;;;;17.10;72.54;99973.00;5053354;28;20032;-75
2023/06/08 05:40:52;;;;;;;18.93;9.93;;;;;;;17.17;72.31;99976.19;5054011;28;20033;-76
2023/06/08 05:43:18;;;;;;;14.67;8.30;;;;;;;17.14;72.39;99974.88;5054483;28;20413;-75
2023/06/08 05:45:44;;;;;;;21.20;9.17;;;;;;;17.26;72.15;99970.81;5054818;28;20290;-75
2023/06/08 05:48:09;;;;;;;23.92;10.13;;;;;;;17.35;72.18;99974.47;5054293;28;20261;-75
2023/06/08 05:50:34;;;;;;;16.02;8.55;;;;;;;17.37;72.08;99972.22;5053881;28;20063;-75
2023/06/08 05:53:00;;;;;;;17.20;9.20;;;;;;;17.54;71.84;99965.28;5054203;28;20721;-75
2023/06/08 05:55:25;;;;;;;17.52;10.02;;;;;;;17.76;71.23;99960.19;5053411;28;20269;-75
2023/06/08 05:57:50;;;;;;;21.02;10.90;;;;;;;17.84;70.88;99967.69;5053347;28;20041;-75
2023/06/08 06:00:17;;;;;;;26.40;9.67;;;;;;;17.88;70.96;99970.69;5053369;28;20052;-75
2023/06/08 06:02:42;;;;;;;17.33;9.90;;;;;;;17.97;70.95;99966.06;5054331;28;20308;-76
2023/06/08 06:05:08;;;;;;;16.27;8.90;;;;;;;18.01;71.19;99960.72;5054362;28;20064;-75
2023/06/08 06:07:33;;;;;;;18.33;8.13;;;;;;;18.19;70.80;99956.19;5053808;28;20037;-75
2023/06/08 06:09:59;;;;;;;17.73;9.00;;;;;;;18.16;71.04;99960.41;5054924;28;20039;-75
2023/06/08 06:12:24;;;;;;;19.45;9.98;;;;;;;18.11;71.01;99960.50;5052356;28;20045;-75
2023/06/08 06:14:52;;;;;;;20.97;10.00;;;;;;;18.24;70.85;99955.28;5053445;28;20091;-76
2023/06/08 06:17:17;;;;;;;19.08;9.88;;;;;;;18.30;70.96;99952.09;5053454;28;20108;-75
2023/06/08 06:19:43;;;;;;;21.13;9.60;;;;;;;18.38;70.33;99960.75;5052772;28;20120;-75
2023/06/08 06:22:09;;;;;;;25.73;7.70;;;;;;;18.50;69.93;99961.00;5053551;28;20044;-75
2023/06/08 06:24:35;;;;;;;16.48;8.85;;;;;;;18.53;69.19;99962.31;5053120;28;20029;-75
2023/06/08 06:27:01;;;;;;;18.52;10.25;;;;;;;18.52;69.13;99967.03;5053999;28;20025;-75
2023/06/08 06:29:27;;;;;;;21.33;10.27;;;;;;;18.45;70.10;99954.78;5052865;28;20040;-74
2023/06/08 06:31:52;;;;;;;20.15;9.05;;;;;;;18.49;69.89;99969.59;5053361;28;20044;-75
2023/06/08 06:34:19;;;;;;;20.58;9.90;;;;;;;18.50;70.10;99969.28;5054479;28;20111;-76
2023/06/08 06:36:44;;;;;;;27.33;10.80;;;;;;;18.51;70.84;99972.84;5060269;28;20090;-76
2023/06/08 06:39:10;;;;;;;28.85;10.85;;;;;;;18.42;70.28;99964.50;5057587;28;20052;-75
2023/06/08 06:41:35;;;;;;;21.38;10.18;;;;;;;18.52;69.25;99969.78;5056888;28;20028;-75
2023/06/08 06:44:00;;;;;;;18.17;10.87;;;;;;;18.49;70.01;99966.84;5058044;28;20045;-75
2023/06/08 06:46:25;;;;;;;14.85;8.63;;;;;;;18.44;69.79;99973.28;5057021;28;20254;-75
2023/06/08 06:48:51;;;;;;;16.90;9.00;;;;;;;18.38;70.58;99974.53;5056985;28;20037;-75
2023/06/08 06:51:16;;;;;;;16.42;8.98;;;;;;;18.38;70.91;99969.03;5057033;28;20257;-74
2023/06/08 06:53:42;;;;;;;18.65;9.25;;;;;;;18.43;70.96;99977.97;5057650;28;20064;-75
2023/06/08 06:56:07;;;;;;;18.73;9.27;;;;;;;18.63;69.82;99975.84;5057245;28;20123;-75
2023/06/08 06:58:32;;;;;;;19.85;9.48;;;;;;;18.60;69.87;99979.25;5057197;28;20087;-75
2023/06/08 07:00:58;;;;;;;17.53;9.57;;;;;;;18.53;70.50;99981.66;5057156;28;20060;-75
2023/06/08 07:03:26;;;;;;;18.55;10.02;;;;;;;18.60;70.28;99986.72;5057122;28;20287;-75
2023/06/08 07:05:53;;;;;;;18.08;9.18;;;;;;;18.43;71.50;99980.75;5057830;28;20029;-76
2023/06/08 07:08:18;;;;;;;17.02;8.63;;;;;;;18.49;71.33;99986.16;5057995;28;20036;-76
2023/06/08 07:10:43;;;;;;;17.15;9.10;;;;;;;18.48;71.60;99979.81;5059727;28;20029;-76
2023/06/08 07:13:08;;;;;;;15.00;8.87;;;;;;;18.57;71.45;99977.09;5057368;28;20036;-75
2023/06/08 07:15:34;;;;;;;25.97;10.10;;;;;;;18.65;70.12;99972.78;5057346;28;20268;-76
2023/06/08 07:17:59;;;;;;;23.85;9.70;;;;;;;18.76;70.41;99976.91;5057830;28;20843;-76
2023/06/08 07:20:24;;;;;;;15.60;9.33;;;;;;;18.88;70.84;99981.03;5056570;28;20029;-76
2023/06/08 07:22:49;;;;;;;27.40;9.48;;;;;;;18.94;70.23;99978.94;5056313;28;20245;-76
2023/06/08 07:25:15;;;;;;;22.43;9.73;;;;;;;19.01;69.66;99977.38;5056691;28;20167;-75
2023/06/08 07:27:40;;;;;;;26.48;10.25;;;;;;;19.02;70.29;99970.72;5056928;28;20036;-75
2023/06/08 07:30:06;;;;;;;27.95;10.95;;;;;;;19.23;69.28;99970.19;5056360;28;20033;-77
2023/06/08 07:32:32;;;;;;;17.27;10.18;;;;;;;19.28;69.87;99976.72;5057055;28;20074;-76
2023/06/08 07:34:58;;;;;;;23.33;9.25;;;;;;;19.31;69.87;99978.84;5056408;28;20043;-75
2023/06/08 07:37:23;;;;;;;20.55;9.57;;;;;;;19.46;68.88;99977.59;5056834;28;20041;-76
2023/06/08 07:39:48;;;;;;;19.23;9.83;;;;;;;19.66;68.11;99987.25;5055214;28;20675;-76
2023/06/08 07:42:14;;;;;;;22.87;9.90;;;;;;;19.54;69.15;99979.56;5055802;28;20258;-75
2023/06/08 07:44:39;;;;;;;18.83;8.82;;;;;;;19.53;68.29;99977.13;5055882;28;20290;-76
2023/06/08 07:47:05;;;;;;;19.13;9.10;;;;;;;19.61;68.24;99981.84;5055266;28;20123;-75
2023/06/08 07:49:30;;;;;;;19.33;8.70;;;;;;;19.75;68.37;99976.19;5055502;28;20041;-75
2023/06/08 07:51:56;;;;;;;20.38;9.02;;;;;;;19.71;68.85;99978.78;5056307;28;20454;-76
2023/06/08 07:54:22;;;;;;;21.25;8.52;;;;;;;19.77;68.85;99973.91;5056615;28;20036;-75
2023/06/08 07:56:48;;;;;;;17.30;8.63;;;;;;;19.87;67.57;99970.03;5056248;28;20060;-74
2023/06/08 07:59:13;;;;;;;13.93;7.53;;;;;;;19.94;67.84;99969.56;5056032;28;20095;-75
2023/06/08 08:01:39;;;;;;;16.98;8.18;;;;;;;19.92;68.71;99978.19;5056756;28;20028;-75
2023/06/08 08:04:04;;;;;;;16.08;8.70;;;;;;;19.97;67.98;99968.94;5057770;28;20386;-77
2023/06/08 08:06:29;;;;;;;21.25;9.75;;;;;;;19.99;67.50;99979.66;5055849;28;21240;-75
2023/06/08 08:08:55;;;;;;;21.13;9.37;;;;;;;20.09;66.43;99968.31;5056379;28;20041;-72
2023/06/08 08:11:20;;;;;;;15.18;8.40;;;;;;;20.01;66.33;99966.31;5057048;28;20253;-76
2023/06/08 08:13:46;;;;;;;16.55;8.65;;;;;;;19.97;67.06;99970.88;5056956;28;20040;-73
2023/06/08 08:16:11;;;;;;;17.80;9.75;;;;;;;20.00;66.57;99961.91;5055089;28;20044;-75
2023/06/08 08:18:36;;;;;;;23.00;9.77;;;;;;;19.98;67.04;99969.72;5054350;28;20040;-78
2023/06/08 08:21:02;;;;;;;21.03;8.60;;;;;;;19.92;67.37;99972.66;5055041;28;20040;-75
2023/06/08 08:23:27;;;;;;;19.02;9.88;;;;;;;19.91;68.40;99971.00;5054705;28;20883;-75
2023/06/08 08:25:52;;;;;;;18.33;8.93;;;;;;;19.88;67.71;99966.13;5055276;28;20041;-75
2023/06/08 08:28:18;;;;;;;22.17;8.77;;;;;;;20.06;66.83;99966.16;5054377;28;20265;-74
2023/06/08 08:30:43;;;;;;;12.90;8.07;;;;;;;20.14;66.45;99959.84;5054996;28;20040;-75
2023/06/08 08:33:08;;;;;;;19.23;10.77;;;;;;;20.18;65.93;99958.06;5054682;28;20064;-74
2023/06/08 08:35:34;;;;;;;17.33;8.63;;;;;;;20.17;66.01;99961.16;5054586;28;20056;-75
2023/06/08 08:37:59;;;;;;;13.55;8.25;;;;;;;20.24;66.16;99964.22;5054681;28;20043;-75
2023/06/08 08:40:25;;;;;;;22.05;10.15;;;;;;;20.24;65.96;99953.16;5054851;28;20040;-74
2023/06/08 08:43:15;;;;;;;18.55;9.43;;;;;;;20.25;66.14;99959.53;5055056;28;20040;-74
2023/06/08 08:45:45;;;;;;;18.10;9.18;;;;;;;20.37;65.61;99945.84;5055285;28;20044;-75
2023/06/08 08:48:13;;;;;;;15.95;10.00;;;;;;;20.49;64.70;99956.25;5054650;28;20040;-75
2023/06/08 08:50:39;;;;;;;15.82;9.18;;;;;;;20.47;65.00;99955.75;5054277;28;20103;-75
2023/06/08 08:53:06;;;;;;;17.63;8.25;;;;;;;20.55;65.21;99948.56;5054235;28;20025;-76
2023/06/08 08:55:33;;;;;;;20.17;10.07;;;;;;;20.49;64.86;99950.72;5054624;28;20033;-74
2023/06/08 08:58:00;;;;;;;15.02;8.70;;;;;;;20.63;65.32;99944.97;5052917;28;20490;-74
2023/06/08 09:00:26;;;;;;;14.52;9.48;;;;;;;20.81;64.88;99939.38;5054126;28;20128;-75
2023/06/08 09:02:52;;;;;;;15.02;9.10;;;;;;;20.91;63.82;99932.66;5054066;28;20175;-75
2023/06/08 09:05:17;;;;;;;17.92;9.50;;;;;;;20.92;63.66;99939.03;5053942;28;20029;-75
2023/06/08 09:07:43;;;;;;;22.52;9.60;;;;;;;20.96;64.00;99935.28;5054207;28;20553;-74
2023/06/08 09:10:21;;;;;;;16.05;8.35;;;;;;;21.02;63.48;99944.25;5054015;28;20052;-75
2023/06/08 09:12:53;;;;;;;16.80;9.40;;;;;;;21.07;63.55;99935.75;5053964;28;20501;-74
2023/06/08 09:15:27;;;;;;;15.98;9.82;;;;;;;21.21;63.15;99943.03;5053512;28;20040;-74
2023/06/08 09:17:54;;;;;;;28.70;10.57;;;;;;;21.28;63.35;99935.00;5054149;28;20741;-76
2023/06/08 09:20:27;;;;;;;15.48;9.00;;;;;;;21.42;63.19;99925.63;5054150;28;20440;-75
2023/06/08 09:22:53;;;;;;;17.92;9.45;;;;;;;21.52;63.32;99939.09;5053681;28;20503;-75
2023/06/08 09:25:32;;;;;;;16.90;8.90;;;;;;;21.57;62.28;99935.34;5053920;28;20048;-75
2023/06/08 09:28:14;;;;;;;20.02;9.45;;;;;;;21.68;62.06;99935.78;5053498;28;20121;-75
2023/06/08 09:30:40;;;;;;;21.25;9.07;;;;;;;21.73;63.09;99929.19;5053758;28;20044;-74
2023/06/08 09:33:21;;;;;;;14.98;9.05;;;;;;;21.77;62.17;99928.19;5053723;28;20037;-75
2023/06/08 09:36:02;;;;;;;17.50;9.57;;;;;;;21.86;62.11;99925.38;5053503;28;20394;-74
2023/06/08 09:38:29;;;;;;;18.55;9.45;;;;;;;21.90;62.94;99931.06;5052898;28;20032;-75
2023/06/08 09:41:21;;;;;;;17.70;9.35;;;;;;;22.06;63.06;99924.91;5053493;28;20408;-75
2023/06/08 09:43:48;;;;;;;22.67;10.13;;;;;;;22.20;62.16;99925.44;5053352;28;20060;-75
2023/06/08 09:46:32;;;;;;;14.65;9.27;;;;;;;22.30;62.60;99917.81;5053127;28;20044;-75
2023/06/08 09:48:57;;;;;;;17.92;9.20;;;;;;;22.34;62.95;99916.00;5053243;28;20127;-75
2023/06/08 09:51:23;;;;;;;13.60;9.07;;;;;;;22.41;62.57;99913.50;5053076;28;20148;-75
2023/06/08 09:53:57;;;;;;;21.10;9.98;;;;;;;22.56;62.10;99911.19;5053021;28;21028;-76
2023/06/08 09:56:25;;;;;;;14.52;9.52;;;;;;;22.65;62.63;99919.44;5053162;28;20025;-74
2023/06/08 09:58:56;;;;;;;21.35;9.88;;;;;;;22.60;61.75;99914.91;5053079;28;20119;-75
2023/06/08 10:01:28;;;;;;;17.10;9.52;;;;;;;22.78;59.97;99917.53;5052773;28;20112;-74
2023/06/08 10:03:59;;;;;;;18.15;8.75;;;;;;;22.91;59.97;99918.34;5053386;28;20045;-75
2023/06/08 10:06:26;;;;;;;16.13;10.13;;;;;;;22.94;60.03;99920.47;5053246;28;20037;-75
2023/06/08 10:08:53;;;;;;;16.00;8.52;;;;;;;22.92;60.39;99918.03;5052897;28;20044;-74
2023/06/08 10:11:20;;;;;;;13.02;8.65;;;;;;;23.01;59.58;99905.97;5052654;28;20114;-74
2023/06/08 10:13:45;;;;;;;20.52;10.13;;;;;;;23.10;58.99;99903.91;5052896;28;20049;-75
2023/06/08 10:16:11;;;;;;;17.88;10.38;;;;;;;23.18;58.55;99902.97;5052869;28;20048;-75
2023/06/08 10:18:38;;;;;;;16.17;8.27;;;;;;;23.20;58.80;99903.44;5052250;28;20429;-74
2023/06/08 10:21:04;;;;;;;17.67;9.20;;;;;;;23.27;59.22;99900.06;5052869;28;20529;-75
2023/06/08 10:23:30;;;;;;;19.65;9.52;;;;;;;23.38;58.66;99905.97;5052648;28;20044;-74
2023/06/08 10:25:56;;;;;;;19.10;9.07;;;;;;;23.50;58.07;99896.00;5053058;28;20036;-75
2023/06/08 10:28:21;;;;;;;15.02;8.20;;;;;;;23.55;58.88;99896.56;5052371;28;20024;-75
2023/06/08 10:30:47;;;;;;;17.77;10.00;;;;;;;23.58;59.18;99895.06;5052852;28;20127;-74
2023/06/08 10:33:19;;;;;;;17.48;10.35;;;;;;;23.70;56.94;99894.22;5052842;28;20040;-75
2023/06/08 10:36:07;;;;;;;26.07;10.87;;;;;;;23.64;57.99;99890.91;5053198;28;20041;-75
2023/06/08 10:38:53;;;;;;;19.58;9.82;;;;;;;23.71;57.85;99890.31;5052820;28;20805;-76
2023/06/08 10:41:42;;;;;;;16.15;8.43;;;;;;;23.80;57.69;99879.00;5053055;28;20037;-76
2023/06/08 10:44:34;;;;;;;13.70;8.73;;;;;;;23.83;56.44;99892.25;5052723;28;20060;-75
2023/06/08 10:47:01;;;;;;;15.77;9.18;;;;;;;24.00;57.49;99885.56;5052506;28;20032;-75
2023/06/08 10:49:31;;;;;;;12.27;8.93;;;;;;;24.09;57.84;99881.81;5052280;28;20028;-75
2023/06/08 10:51:58;;;;;;;27.00;11.30;;;;;;;24.15;56.66;99874.81;5052833;28;20447;-74
2023/06/08 10:54:24;;;;;;;18.88;9.63;;;;;;;24.11;55.23;99874.72;5052425;28;20107;-75
2023/06/08 10:56:52;;;;;;;14.27;9.38;;;;;;;24.25;55.71;99870.75;5052698;28;20036;-75
2023/06/08 10:59:34;;;;;;;16.08;9.10;;;;;;;24.34;56.14;99865.03;5051522;28;20045;-75
2023/06/08 11:02:05;;;;;;;15.57;7.95;;;;;;;24.33;57.75;99864.22;5052140;28;20052;-75
2023/06/08 11:04:32;;;;;;;15.27;9.23;;;;;;;24.34;55.37;99857.47;5052446;28;20045;-75
2023/06/08 11:07:05;;;;;;;19.15;9.45;;;;;;;24.48;56.32;99850.66;5051140;28;20561;-75
2023/06/08 11:09:33;;;;;;;22.20;11.00;;;;;;;24.54;55.44;99862.34;5052766;28;20033;-75
2023/06/08 11:12:03;;;;;;;19.15;9.05;;;;;;;24.64;56.19;99867.38;5052418;28;20029;-75
2023/06/08 11:14:28;;;;;;;17.30;8.95;;;;;;;24.62;55.52;99852.19;5052184;28;20032;-75
2023/06/08 11:16:55;;;;;;;11.90;7.78;;;;;;;24.84;55.01;99854.34;5052324;28;20465;-76
2023/06/08 11:19:24;;;;;;;14.43;9.32;;;;;;;24.87;54.01;99854.81;5051751;28;20473;-74
2023/06/08 11:21:53;;;;;;;21.67;8.52;;;;;;;24.70;55.24;99843.66;5053619;28;20039;-75
2023/06/08 11:24:20;;;;;;;14.30;9.27;;;;;;;24.62;53.46;99853.00;5055802;28;20720;-75